Flight Track Log - Related Links

Times and Time Zones

All times are in EDT time to prevent confusion due to time zone crossing. See the PDT4147 flight status page for this flight to view local times or setup timezone preferences in your user account.

Time Position Orientation Groundspeed Altitude Reporting Facility
EDT Latitude Longitude Course Direction KTS MPH feet Rate Location/Type
Wed 02:58:59 PM 35.2011 -80.9353 71° East 139 160 1,400  Level Atlanta Center
Wed 03:00:19 PM 35.1953 -80.8617 96° East 173 199 3,500 1,532 Climbing Atlanta Center
Wed 03:01:00 PM 35.2779 -80.6888 39° Northeast  Level FlightAware Approximate
Wed 03:01:20 PM 35.1936 -80.8058 92° East 170 196 5,000  Level Atlanta Center
Wed 03:02:00 PM 35.3001 -80.6082 64° Northeast  Level FlightAware Approximate
Wed 03:02:21 PM 35.1958 -80.7322 88° East 230 265 5,000  Level Atlanta Center
Wed 03:03:00 PM 35.3280 -80.5266 71° East  Level FlightAware Approximate
Wed 03:03:22 PM 35.1958 -80.6483 90° East 244 281 5,600  Level Atlanta Center
Wed 03:04:00 PM 35.3515 -80.4428 71° East  Level FlightAware Approximate
Wed 03:04:24 PM 35.2189 -80.5839 66° East 214 246 6,800  Level Atlanta Center
Wed 03:05:25 PM 35.2486 -80.5217 60° Northeast 206 237 8,100 1,031 Climbing Atlanta Center
Wed 03:06:32 PM 35.2800 -80.4567 59° Northeast 196 226 9,000 806 Climbing Atlanta Center
Wed 03:08:00 PM 35.3355 -80.3460 58° Northeast  Level FlightAware Approximate
Wed 03:15:00 PM 35.7315 -80.0786 North  Level FlightAware Approximate
Wed 03:16:00 PM 35.8036 -80.0731 North  Level FlightAware Approximate
Wed 03:17:00 PM 35.8758 -80.0676 North  Level FlightAware Approximate
Wed 03:18:00 PM 35.9479 -80.0621 North  Level FlightAware Approximate
Wed 03:19:00 PM 36.0201 -80.0566 North  Level FlightAware Approximate
Wed 03:20:00 PM 36.0922 -80.0510 North  Level FlightAware Approximate
Wed 03:21:00 PM 36.1644 -80.0455 North  Level FlightAware Approximate
Wed 03:22:00 PM 36.2365 -80.0399 North  Level FlightAware Approximate
Wed 03:23:00 PM 36.3087 -80.0343 North  Level FlightAware Approximate
Wed 03:24:00 PM 36.3808 -80.0287 North  Level FlightAware Approximate
Wed 03:25:00 PM 36.4530 -80.0231 North  Level FlightAware Approximate
Wed 03:26:00 PM 36.5251 -80.0175 North  Level FlightAware Approximate
Wed 03:27:00 PM 36.5973 -80.0119 North  Level FlightAware Approximate
Wed 03:28:00 PM 36.6694 -80.0063 North  Level FlightAware Approximate
Wed 03:29:00 PM 36.7416 -80.0007 North  Level FlightAware Approximate
Wed 03:30:00 PM 36.8138 -80.0000 North  Level FlightAware Approximate
Wed 03:31:00 PM 36.8861 -80.0000 North  Level FlightAware Approximate
Wed 03:32:00 PM 36.9576 -79.9919 15° North  Level FlightAware Approximate
Wed 03:33:00 PM 37.0289 -79.9833 North  Level FlightAware Approximate
Wed 03:34:00 PM 37.1012 -79.9833 North  Level FlightAware Approximate
Wed 03:35:00 PM 37.1735 -79.9833 360° North  Level FlightAware Approximate
Wed 03:36:00 PM 37.2450 -79.9710 North  Level FlightAware Approximate
Wed 03:37:00 PM 37.3167 -79.9667 North  Level FlightAware Approximate
Wed 03:38:00 PM 37.3255 -79.9754 North  Level Estimated
Wed 03:39:00 PM 37.3255 -79.9754 North  Level Estimated
Wed 03:40:00 PM 37.3255 -79.9754 North  Level Estimated
Wed 03:41:00 PM 37.3255 -79.9754 North  Level Estimated

Login

Don't have an account? Register now (free) for customized features, flight alerts, and more!